Amazonia, Missouri
Current Conditions -  °F | °C
As of 3:53 AM on Thursday 27 Nov 2014 (Local Time) from KSTJ Reporting Station
Overcast Overcast  
Wind Chill: 14°   Ceiling: 1400
Heat Index: 25°   Visibility: 10mi
Dew Point: 19°   Wind: 12mph
Humidity: 78%   Direction: 360°N
Pressure: 30.5"   Gusts: NA
Location:  39.89°N, 94.89°W
Report Text: KSTJ 270953Z AUTO 36010KT 10SM OVC014 M04/M07 A3050 RMK AO2 SLP338 T10391072
Loading
Personal Weather Stations






























Interactive Weather Map New forecast layout! Learn more

10-Day Weather Forecast

Advertisements
Track Severe Weather on mobile